»·PEaware :: N293WK KSNA-KCRQ

N293WK :: KSNA-KCRQ

FLIGHT INFORMATION

Flight Status: Arrived
Operator: Privately registered:
United States
More flights under this callsign
Pilot: Vinnie C. (35885)
Aircraft: Unknown
(P28S)
More flights by this aircraft type
Origin: KSNA John Wayne-Orange Co
United States
Destination: KCRQ McClellan-Palomar
United States
More flights between these airports :: More routes between these airports
Route: V23 OCN
File this flight plan on PilotEdge
Remarks:
Altitude:
(Current/Filed)
5,000ft
Speed:
(Current/Filed)
145kts
Departed: 26-Sep-21 11:13 AM
Arrived: 26-Sep-21 11:51 AM
Distance/Time
Traveled:
44nm/0:38
Distance/Time
To Go:
Arrived

Flight Plot

Page will automatically refresh every two minutes.


Map Options




Map Legend


Flown Route
Filed Route
Departure Airport
Arrival Airport
Navaid (VOR, NDB)
Fix

Horizontal Profiles

Position Reports

Time Latitude Longitude Heading Altitude Ground
Speed
26-Sep-21 10:58 33.666831 -117.872444 167 45ft 0kts
26-Sep-21 10:59 33.666831 -117.872445 167 45ft 0kts
26-Sep-21 11:00 33.666831 -117.872445 167 45ft 0kts
26-Sep-21 11:01 33.666831 -117.872445 167 45ft 0kts
26-Sep-21 11:01 33.666831 -117.872445 167 45ft 0kts
26-Sep-21 11:03 33.666831 -117.872445 167 45ft 0kts
26-Sep-21 11:04 33.666831 -117.872445 167 45ft 0kts
26-Sep-21 11:04 33.666831 -117.872445 167 45ft 0kts
26-Sep-21 11:06 33.666831 -117.872445 167 45ft 0kts
26-Sep-21 11:07 33.666831 -117.872445 167 45ft 0kts
26-Sep-21 11:07 33.667510 -117.872492 8 45ft 10kts
26-Sep-21 11:08 33.671579 -117.868500 31 44ft 23kts
26-Sep-21 11:09 33.675807 -117.866039 28 45ft 18kts
26-Sep-21 11:11 33.679987 -117.863668 300 44ft 0kts
26-Sep-21 11:11 33.679987 -117.863668 300 44ft 0kts
26-Sep-21 11:12 33.668874 -117.871234 210 316ft 103kts
26-Sep-21 11:14 33.636500 -117.877415 186 1735ft 103kts
26-Sep-21 11:14 33.612297 -117.881081 188 2627ft 105kts
26-Sep-21 11:15 33.582545 -117.886787 192 3655ft 109kts
26-Sep-21 11:16 33.552160 -117.892623 190 4619ft 112kts
26-Sep-21 11:17 33.519750 -117.897553 188 5211ft 136kts
26-Sep-21 11:18 33.486337 -117.885194 109 5192ft 147kts
26-Sep-21 11:19 33.468684 -117.840147 116 5061ft 151kts
26-Sep-21 11:20 33.451683 -117.794681 112 4980ft 149kts
26-Sep-21 11:21 33.434851 -117.749336 115 4944ft 147kts
26-Sep-21 11:22 33.418009 -117.704746 113 4935ft 147kts
26-Sep-21 11:23 33.401604 -117.659949 112 4944ft 146kts
26-Sep-21 11:24 33.387577 -117.614099 110 4937ft 147kts
26-Sep-21 11:25 33.374079 -117.567908 112 4951ft 146kts
26-Sep-21 11:26 33.356088 -117.524978 104 4934ft 147kts
26-Sep-21 11:27 33.344670 -117.478319 106 4965ft 146kts
26-Sep-21 11:28 33.331748 -117.432271 106 4969ft 146kts
26-Sep-21 11:29 33.320013 -117.385641 105 4978ft 146kts
26-Sep-21 11:30 33.307181 -117.339566 108 4992ft 146kts
26-Sep-21 11:31 33.295523 -117.292983 106 5006ft 145kts
26-Sep-21 11:32 33.283495 -117.246722 109 5010ft 145kts
26-Sep-21 11:33 33.270091 -117.201192 108 5014ft 145kts
26-Sep-21 11:34 33.256132 -117.155780 111 5026ft 145kts
26-Sep-21 11:35 33.243172 -117.110274 109 5015ft 145kts
26-Sep-21 11:36 33.229896 -117.064556 108 5030ft 145kts
26-Sep-21 11:37 33.217033 -117.018793 107 5032ft 145kts
26-Sep-21 11:38 33.206140 -116.972665 105 5062ft 143kts
26-Sep-21 11:39 33.182854 -116.968291 256 4840ft 144kts
26-Sep-21 11:40 33.172453 -117.012052 252 4192ft 121kts
26-Sep-21 11:41 33.167210 -117.050169 256 3529ft 118kts
26-Sep-21 11:42 33.159551 -117.085548 256 3238ft 106kts
26-Sep-21 11:43 33.153417 -117.120059 257 2590ft 104kts
26-Sep-21 11:44 33.147282 -117.151929 256 2321ft 91kts
26-Sep-21 11:45 33.143067 -117.181380 263 1968ft 77kts
26-Sep-21 11:46 33.140408 -117.205960 259 1490ft 74kts
26-Sep-21 11:47 33.136380 -117.229734 257 1167ft 73kts
26-Sep-21 11:48 33.132522 -117.253379 260 722ft 72kts
26-Sep-21 11:49 33.128821 -117.276588 257 329ft 55kts
26-Sep-21 11:50 33.128593 -117.282817 357 331ft 0kts
26-Sep-21 11:51 33.128594 -117.282817 357 331ft 0kts
26-Sep-21 11:52 33.128927 -117.282334 173 331ft 0kts

Navigation Log

Ident Type
Flight plan parsing failed, navigation log unavailable